• Join FlightAware (Why Join?)
  • Login
  • US Flag 
02:07PM EDT


 

Airport Tracker/Info


-or-


 

Live Flight TrackerFlight Track Log ✈ VH-YDN ✈ 27-Jul-2013 ✈ YTNK / TCA - YBAS / ASP

Flight Track Log - Related Links

Times and Time Zones

All times are in EDT time to prevent confusion due to time zone crossing. See the VH-YDN flight status page for this flight to view local times or setup timezone preferences in your user account.

Time Position Orientation Groundspeed Altitude Reporting Facility
EDT Latitude Longitude Course Direction KTS MPH feet Rate Location/Type
09:36PM -19.7428 134.1740 360° North 23,000  Level Aus ATC (Calculated)
09:36PM -19.7428 134.1740 184° South 23,000  Level Aus ATC (Calculated)
09:37PM -19.7969 134.1701 184° South 23,000  Level Aus ATC (Calculated)
09:38PM -19.9050 134.1623 184° South 23,000  Level Aus ATC (Calculated)
09:40PM -20.0127 134.1546 184° South  Level FlightAware Approximate
09:40PM -19.9591 134.1584 184° South 23,000  Level Aus ATC (Calculated)
09:42PM -20.0790 134.1498 184° South  Level FlightAware Approximate
09:42PM -20.1213 134.1468 184° South 23,000  Level Aus ATC (Calculated)
09:44PM -20.2279 134.1391 184° South  Level FlightAware Approximate
09:44PM -20.2294 134.1390 184° South 23,000  Level Aus ATC (Calculated)
09:46PM -20.3268 134.1320 184° South  Level FlightAware Approximate
09:47PM -20.3883 134.1275 184° South  Level FlightAware Approximate
09:47PM -20.3916 134.1273 184° South 23,000  Level Aus ATC (Calculated)
09:48PM -20.4456 134.1234 184° South 23,000  Level Aus ATC (Calculated)
09:50PM -20.5645 134.1148 184° South  Level FlightAware Approximate
09:50PM -20.5537 134.1156 184° South 23,000  Level Aus ATC (Calculated)
09:51PM -20.6152 134.1111 184° South  Level FlightAware Approximate
09:51PM -20.6078 134.1117 184° South 23,000  Level Aus ATC (Calculated)
09:53PM -20.7267 134.1030 184° South  Level FlightAware Approximate
09:53PM -20.7699 134.0999 184° South 23,000  Level Aus ATC (Calculated)
09:55PM -20.8427 134.0946 184° South  Level FlightAware Approximate
09:56PM -20.9043 134.0902 184° South  Level FlightAware Approximate
09:57PM -20.9658 134.0857 184° South  Level FlightAware Approximate
09:58PM -21.0273 134.0812 184° South  Level FlightAware Approximate
09:59PM -21.0888 134.0767 184° South  Level FlightAware Approximate
10:00PM -21.1503 134.0722 184° South  Level FlightAware Approximate
10:01PM -21.2119 134.0677 184° South  Level FlightAware Approximate
10:02PM -21.2734 134.0632 184° South  Level FlightAware Approximate
10:03PM -21.3349 134.0587 184° South  Level FlightAware Approximate
10:03PM -21.3105 134.0605 184° South 23,000  Level Aus ATC (Calculated)
10:05PM -21.4304 134.0517 184° South  Level FlightAware Approximate
10:05PM -21.4538 134.0501 North 23,000  Level Aus ATC (Calculated)
10:06PM -21.3923 134.0546 North  Level FlightAware Approximate
10:06PM -21.5431 134.0436 360° North 23,000  Level Aus ATC (Calculated)
10:06PM -21.5431 134.0436 North 23,000  Level Aus ATC (Calculated)
10:08PM -21.4540 134.0501 North  Level FlightAware Approximate
10:09PM -21.3924 134.0546 North  Level FlightAware Approximate
10:09PM -21.8111 134.0240 North 23,000  Level Aus ATC (Calculated)
10:10PM -21.3856 134.0551 184° South  Level FlightAware Approximate
10:11PM -21.8778 134.0191 184° South  Level FlightAware Approximate
10:12PM -21.9393 134.0146 184° South  Level FlightAware Approximate
10:13PM -22.0008 134.0101 184° South  Level FlightAware Approximate
10:14PM -22.0623 134.0056 184° South  Level FlightAware Approximate
10:15PM -22.1238 134.0011 184° South  Level FlightAware Approximate
10:16PM -22.1854 133.9966 184° South  Level FlightAware Approximate
10:17PM -22.2469 133.9920 184° South  Level FlightAware Approximate
10:18PM -22.3084 133.9875 184° South  Level FlightAware Approximate
10:19PM -22.3699 133.9830 184° South  Level FlightAware Approximate
10:20PM -22.4314 133.9784 184° South  Level FlightAware Approximate
10:21PM -22.4929 133.9739 184° South  Level FlightAware Approximate
10:22PM -22.5544 133.9693 184° South  Level FlightAware Approximate
10:23PM -22.6159 133.9648 184° South  Level FlightAware Approximate
10:24PM -22.6774 133.9602 184° South  Level FlightAware Approximate
10:24PM -22.7935 133.9516 360° North 23,000  Level Aus ATC (Calculated)
10:26PM -22.6990 133.9516 North  Level FlightAware Approximate
10:27PM -22.7606 133.9516 180° South  Level FlightAware Approximate
10:27PM -22.9184 133.9425 184° South 500  Level Aus ATC (Calculated)
10:27PM -22.9809 133.9379 219° Southwest 500  Level Aus ATC (Calculated)
10:27PM -22.9809 133.9379 North 500  Level Aus ATC (Calculated)
10:28PM -22.8569 133.9470 North  Level FlightAware Approximate
10:29PM -22.9091 133.9432 North  Level FlightAware Approximate
10:30PM -22.8476 133.9476 North  Level FlightAware Approximate
10:31PM -22.7861 133.9521 North  Level FlightAware Approximate
10:32PM -22.8476 133.9477 184° South  Level FlightAware Approximate
10:32PM -23.3556 133.9104 North 500  Level Aus ATC (Calculated)
10:33PM -23.0434 133.9333 184° South  Level FlightAware Approximate
10:34PM -23.4181 133.9059 184° South  Level FlightAware Approximate
10:35PM -23.4796 133.9013 184° South  Level FlightAware Approximate
10:35PM -23.5429 133.8967 184° South 500  Level Aus ATC (Calculated)
10:36PM -23.6678 133.8874 North 500  Level Aus ATC (Calculated)
10:37PM -23.6475 133.8889 184° South  Level FlightAware Approximate
10:37PM -23.6678 133.8874 184° South 500  Level Aus ATC (Calculated)
10:38PM -23.7304 133.8828 184° South  Level FlightAware Approximate
10:39PM -23.7580 133.8808 184° South  Level FlightAware Approximate
10:39PM -23.8083 133.9009 37° Northeast  Level Aus ATC (Calculated)
10:40PM -23.8067 133.9022 184° South  Level Estimated
10:41PM -23.8067 133.9022 307° West  Level Estimated
10:42PM -23.8067 133.9022 302° West  Level Estimated
10:43PM -23.8067 133.9022 302° West  Level Estimated
10:44PM -23.8067 133.9022 302° West  Level Estimated
10:45PM -23.8067 133.9022 127° Southeast  Level Estimated